createdAt,value
2022-12-08T00:05:12.165Z,83.23
2022-12-08T00:10:46.607Z,82.97
2022-12-08T00:15:35.484Z,83.15
2022-12-08T00:20:37.052Z,82.92
2022-12-08T00:25:38.843Z,83.02
2022-12-08T00:30:40.921Z,83.03
2022-12-08T00:35:43.430Z,83.13
2022-12-08T00:40:45.815Z,83.16
2022-12-08T00:45:47.497Z,83.06
2022-12-08T00:50:49.116Z,82.89
2022-12-08T00:55:50.937Z,82.76
2022-12-08T01:00:52.596Z,82.71
2022-12-08T01:05:54.692Z,82.14
2022-12-08T01:10:56.395Z,81.86
2022-12-08T01:15:57.980Z,82.23
2022-12-08T01:21:04.263Z,82.09
2022-12-08T01:26:06.976Z,82.08
2022-12-08T01:31:16.631Z,81.99
2022-12-08T01:36:25.631Z,81.70
2022-12-08T01:41:28.721Z,81.98
2022-12-08T01:46:31.488Z,81.88
2022-12-08T01:51:36.105Z,81.79
2022-12-08T01:56:41.490Z,81.32
2022-12-08T02:01:44.280Z,81.52
2022-12-08T02:06:46.776Z,81.46
2022-12-08T02:11:49.073Z,81.40
2022-12-08T02:17:12.913Z,81.41
2022-12-08T02:22:50.074Z,81.30
2022-12-08T02:27:51.745Z,81.19
2022-12-08T02:33:08.769Z,81.08
2022-12-08T02:38:10.908Z,81.21
2022-12-08T02:43:17.461Z,81.05
2022-12-08T02:48:19.076Z,81.04
2022-12-08T02:53:20.745Z,81.06
2022-12-08T02:58:22.304Z,80.85
2022-12-08T03:03:28.927Z,80.58
2022-12-08T03:08:42.136Z,80.31
2022-12-08T03:13:46.403Z,80.79
2022-12-08T03:18:51.210Z,81.19
2022-12-08T03:23:55.724Z,81.16
2022-12-08T03:28:57.736Z,81.16
2022-12-08T03:33:59.914Z,81.16
2022-12-08T03:39:02.124Z,81.21
2022-12-08T03:44:03.953Z,81.20
2022-12-08T03:49:05.724Z,81.01
2022-12-08T03:54:07.639Z,80.77
2022-12-08T03:59:10.318Z,81.31
2022-12-08T04:04:12.061Z,81.64
2022-12-08T04:09:13.792Z,81.89
2022-12-08T04:14:15.430Z,81.63
2022-12-08T04:19:17.044Z,82.00
2022-12-08T04:24:18.677Z,82.30
2022-12-08T04:29:20.417Z,82.42
2022-12-08T04:34:22.016Z,82.62
2022-12-08T04:39:23.713Z,82.64
2022-12-08T04:44:25.299Z,82.75
2022-12-08T04:49:27.406Z,83.03
2022-12-08T04:54:29.002Z,83.24
2022-12-08T04:59:30.956Z,83.42
2022-12-08T05:04:32.629Z,83.33
2022-12-08T05:09:34.361Z,83.46
2022-12-08T05:14:35.962Z,83.26
2022-12-08T05:19:37.614Z,83.46
2022-12-08T05:24:43.997Z,83.45
2022-12-08T05:29:48.925Z,83.48
2022-12-08T05:34:51.339Z,83.45
2022-12-08T05:39:52.996Z,83.65
2022-12-08T05:44:54.583Z,83.41
2022-12-08T05:49:56.353Z,83.59
2022-12-08T05:54:57.925Z,83.73
2022-12-08T05:59:59.584Z,83.28
2022-12-08T06:05:01.538Z,83.00
2022-12-08T06:10:03.966Z,83.11
2022-12-08T06:15:06.141Z,82.85
2022-12-08T06:20:08.151Z,84.95
2022-12-08T06:25:10.390Z,83.99
2022-12-08T06:30:12.235Z,82.76
2022-12-08T06:35:13.764Z,81.74
2022-12-08T06:40:15.419Z,81.26
2022-12-08T06:45:17.845Z,80.27
2022-12-08T06:50:19.549Z,78.62
2022-12-08T06:55:50.861Z,79.11
2022-12-08T07:00:43.280Z,79.07
2022-12-08T07:05:45.064Z,79.04
2022-12-08T07:10:46.683Z,79.17
2022-12-08T07:15:48.277Z,78.85
2022-12-08T07:20:49.925Z,78.98
2022-12-08T07:25:51.568Z,79.43
2022-12-08T07:30:53.201Z,80.52
2022-12-08T07:35:58.470Z,80.64
2022-12-08T07:41:01.335Z,80.49
2022-12-08T07:46:03.010Z,80.08
2022-12-08T07:51:05.187Z,80.01
2022-12-08T07:56:07.297Z,80.22
2022-12-08T08:01:18.761Z,80.28
2022-12-08T08:06:20.409Z,80.10
2022-12-08T08:11:22.239Z,79.80
2022-12-08T08:16:24.039Z,80.21
2022-12-08T08:26:47.456Z,80.60
2022-12-08T08:31:49.068Z,81.54
2022-12-08T08:36:50.891Z,82.49
2022-12-08T08:41:52.696Z,83.69
2022-12-08T08:46:54.458Z,83.85
2022-12-08T08:51:56.102Z,84.22
2022-12-08T08:56:58.582Z,83.90
2022-12-08T09:02:00.356Z,84.35
2022-12-08T09:07:02.130Z,83.88
2022-12-08T09:12:03.970Z,84.53
2022-12-08T09:17:08.429Z,84.23
2022-12-08T09:22:10.007Z,84.56
2022-12-08T09:27:11.935Z,85.12
2022-12-08T09:32:13.598Z,85.25
2022-12-08T09:37:15.197Z,85.31
2022-12-08T09:42:21.358Z,85.87
2022-12-08T09:47:32.101Z,86.32
2022-12-08T09:52:54.219Z,86.21
2022-12-08T09:58:01.726Z,86.67
2022-12-08T10:03:03.350Z,86.81
2022-12-08T10:08:28.206Z,86.43
2022-12-08T10:13:39.761Z,86.39
2022-12-08T10:18:41.802Z,87.10
2022-12-08T10:23:45.624Z,86.96
2022-12-08T10:28:47.327Z,86.73
2022-12-08T10:33:53.539Z,86.74
2022-12-08T10:38:55.793Z,86.92
2022-12-08T10:44:01.676Z,87.29
2022-12-08T10:49:03.239Z,87.08
2022-12-08T10:54:08.530Z,86.83
2022-12-08T10:59:17.483Z,87.31
2022-12-08T11:04:20.595Z,87.40
2022-12-08T11:09:51.569Z,87.17
2022-12-08T11:15:01.374Z,87.45
2022-12-08T11:21:49.175Z,87.37
2022-12-08T11:26:34.295Z,87.00
2022-12-08T11:31:40.939Z,87.17
2022-12-08T11:36:42.665Z,87.21
2022-12-08T11:41:45.967Z,87.45
2022-12-08T11:46:56.944Z,87.29
2022-12-08T11:52:17.213Z,87.45
2022-12-08T11:57:21.711Z,87.30
2022-12-08T12:02:23.308Z,87.20
2022-12-08T12:07:33.288Z,87.27
2022-12-08T12:12:39.931Z,87.09
2022-12-08T12:17:47.809Z,87.06
2022-12-08T12:22:55.553Z,87.34
2022-12-08T12:28:00.467Z,87.57
2022-12-08T12:33:02.262Z,87.84
2022-12-08T12:38:26.309Z,88.17
2022-12-08T12:43:30.103Z,88.86
2022-12-08T12:48:31.810Z,88.97
2022-12-08T12:53:36.228Z,89.04
2022-12-08T12:58:38.578Z,89.03
2022-12-08T13:03:41.398Z,88.83
2022-12-08T13:08:51.116Z,88.93
2022-12-08T13:14:01.240Z,88.93
2022-12-08T13:19:11.720Z,89.32
2022-12-08T13:24:19.852Z,89.13
2022-12-08T13:29:25.375Z,88.81
2022-12-08T13:34:41.906Z,89.02
2022-12-08T13:39:46.672Z,89.24
2022-12-08T13:51:23.652Z,89.47
2022-12-08T14:01:15.884Z,89.01
2022-12-08T14:06:19.336Z,88.73
2022-12-08T14:11:33.565Z,88.74
2022-12-08T14:16:42.622Z,88.73
2022-12-08T14:21:48.254Z,88.31
2022-12-08T14:26:51.984Z,88.36
2022-12-08T14:31:53.726Z,88.11
2022-12-08T14:36:55.597Z,87.94
2022-12-08T14:42:00.483Z,87.65
2022-12-08T14:47:05.728Z,87.47
2022-12-08T14:52:11.544Z,87.72
2022-12-08T14:57:14.338Z,87.74
2022-12-08T15:02:15.939Z,87.42
2022-12-08T15:07:18.866Z,87.70
2022-12-08T15:12:26.795Z,87.66
2022-12-08T15:17:31.610Z,87.43
2022-12-08T15:22:33.495Z,87.38
2022-12-08T15:27:46.879Z,86.89
2022-12-08T15:32:52.708Z,87.09
2022-12-08T15:37:54.318Z,86.51
2022-12-08T15:42:56.121Z,86.25
2022-12-08T15:47:57.682Z,86.36
2022-12-08T15:52:59.456Z,86.21
2022-12-08T16:08:56.055Z,85.85
2022-12-08T16:14:41.985Z,86.09
2022-12-08T16:19:29.256Z,86.11
2022-12-08T16:24:30.863Z,85.93
2022-12-08T16:29:32.417Z,85.84
2022-12-08T16:34:34.065Z,85.72
2022-12-08T16:39:38.739Z,85.32
2022-12-08T16:44:42.640Z,85.81
2022-12-08T16:49:44.333Z,85.98
2022-12-08T16:54:46.061Z,86.09
2022-12-08T16:59:47.687Z,85.90
2022-12-08T17:04:49.277Z,85.90
2022-12-08T17:09:50.987Z,85.99
2022-12-08T17:14:53.413Z,85.86
2022-12-08T17:19:55.006Z,86.16
2022-12-08T17:24:56.637Z,86.34
2022-12-08T17:29:58.271Z,86.36
2022-12-08T17:34:59.992Z,86.57
2022-12-08T17:40:01.730Z,86.23
2022-12-08T17:45:04.097Z,86.46
2022-12-08T17:50:06.687Z,86.24
2022-12-08T17:55:09.853Z,86.09
2022-12-08T18:00:11.873Z,86.20
2022-12-08T18:05:13.615Z,86.17
2022-12-08T18:10:15.738Z,85.99
2022-12-08T18:15:19.328Z,85.83
2022-12-08T18:20:20.929Z,86.17
2022-12-08T18:25:22.557Z,86.43
2022-12-08T18:30:24.226Z,87.25
2022-12-08T18:35:28.725Z,86.80
2022-12-08T18:40:30.845Z,86.99
2022-12-08T18:45:32.716Z,87.54
2022-12-08T18:50:34.377Z,87.88
2022-12-08T18:55:37.088Z,88.18
2022-12-08T19:00:39.268Z,88.14
2022-12-08T19:05:40.939Z,88.41
2022-12-08T19:10:42.822Z,88.46
2022-12-08T19:15:44.448Z,88.67
2022-12-08T19:20:46.107Z,88.81
2022-12-08T19:25:47.755Z,89.00
2022-12-08T19:30:49.478Z,89.42
2022-12-08T19:35:52.877Z,89.76
2022-12-08T19:41:27.145Z,89.03
2022-12-08T19:46:29.072Z,89.74
2022-12-08T19:51:30.815Z,89.14
2022-12-08T19:56:32.448Z,89.58
2022-12-08T20:01:34.116Z,89.46
2022-12-08T20:07:51.497Z,89.89
2022-12-08T20:13:13.112Z,89.66
2022-12-08T20:18:15.105Z,89.95
2022-12-08T20:23:16.959Z,89.82
2022-12-08T20:28:19.143Z,89.50
2022-12-08T20:33:20.830Z,90.39
2022-12-08T20:38:22.464Z,90.53
2022-12-08T20:43:24.353Z,90.47
2022-12-08T20:48:25.992Z,90.43
2022-12-08T20:53:27.683Z,90.59
2022-12-08T20:58:29.541Z,90.55
2022-12-08T21:03:31.249Z,90.88
2022-12-08T21:08:33.198Z,90.33
2022-12-08T21:13:37.006Z,90.84
2022-12-08T21:18:39.862Z,91.11
2022-12-08T21:23:42.407Z,91.65
2022-12-08T21:28:44.433Z,91.73
2022-12-08T21:33:46.212Z,91.52
2022-12-08T21:38:48.674Z,91.83
2022-12-08T21:43:50.641Z,92.04
2022-12-08T21:48:52.469Z,91.71
2022-12-08T21:53:55.079Z,91.35
2022-12-08T21:58:57.111Z,91.24
2022-12-08T22:03:58.885Z,91.19
2022-12-08T22:09:00.742Z,91.05
2022-12-08T22:14:02.399Z,91.17
2022-12-08T22:19:04.078Z,91.16
2022-12-08T22:24:06.215Z,90.81
2022-12-08T22:29:08.549Z,90.99
2022-12-08T22:34:10.336Z,90.37
2022-12-08T22:39:12.396Z,90.03
2022-12-08T22:44:16.363Z,89.66
2022-12-08T22:49:18.178Z,89.57
2022-12-08T22:54:20.008Z,89.55
2022-12-08T22:59:21.929Z,89.47
2022-12-08T23:04:23.845Z,89.15
2022-12-08T23:09:25.638Z,89.68
2022-12-08T23:14:27.714Z,89.20
2022-12-08T23:19:29.256Z,89.42
2022-12-08T23:24:31.267Z,89.67
2022-12-08T23:29:32.925Z,89.75
2022-12-08T23:34:34.517Z,89.68
2022-12-08T23:39:36.197Z,90.02
2022-12-08T23:44:37.819Z,89.52
2022-12-08T23:49:39.840Z,89.82
2022-12-08T23:54:41.496Z,90.33
2022-12-08T23:59:43.144Z,90.26
